createdAt,value
2018-03-04T00:02:05.352Z,98696.33
2018-03-04T00:04:32.747Z,98701.62
2018-03-04T00:07:00.140Z,98703.47
2018-03-04T00:09:27.547Z,98707.21
2018-03-04T00:11:54.941Z,98709.72
2018-03-04T00:14:23.031Z,98714.48
2018-03-04T00:16:50.742Z,98712.98
2018-03-04T00:19:18.145Z,98704.83
2018-03-04T00:21:45.569Z,98713.13
2018-03-04T00:24:12.953Z,98717.34
2018-03-04T00:26:40.345Z,98717.04
2018-03-04T00:29:07.783Z,98729.34
2018-03-04T00:31:35.213Z,98728.02
2018-03-04T00:34:02.907Z,98723.36
2018-03-04T00:36:30.341Z,98726.70
2018-03-04T00:38:57.728Z,98721.51
2018-03-04T00:41:25.116Z,98729.10
2018-03-04T00:43:53.352Z,98726.53
2018-03-04T00:46:20.744Z,98733.81
2018-03-04T00:48:48.170Z,98726.46
2018-03-04T00:51:15.576Z,98733.42
2018-03-04T00:53:42.992Z,98739.17
2018-03-04T00:56:10.388Z,98740.62
2018-03-04T00:58:37.802Z,98738.92
2018-03-04T01:01:05.205Z,98737.77
2018-03-04T01:03:32.770Z,98728.72
2018-03-04T01:06:00.204Z,98719.27
2018-03-04T01:08:27.594Z,98720.56
2018-03-04T01:10:55.139Z,98717.23
2018-03-04T01:13:23.380Z,98724.33
2018-03-04T01:15:51.693Z,98717.28
2018-03-04T01:18:19.280Z,98725.07
2018-03-04T01:20:46.663Z,98725.48
2018-03-04T01:23:14.062Z,98732.33
2018-03-04T01:25:41.520Z,98725.70
2018-03-04T01:28:09.174Z,98731.78
2018-03-04T01:30:36.580Z,98721.76
2018-03-04T01:33:04.898Z,98718.28
2018-03-04T01:35:32.330Z,98720.29
2018-03-04T01:37:59.715Z,98726.89
2018-03-04T01:40:27.108Z,98731.11
2018-03-04T01:42:56.556Z,98734.72
2018-03-04T01:45:23.947Z,98738.03
2018-03-04T01:47:51.351Z,98735.17
2018-03-04T01:50:18.806Z,98736.16
2018-03-04T01:52:46.215Z,98745.14
2018-03-04T01:55:13.599Z,98752.80
2018-03-04T01:57:41.029Z,98752.78
2018-03-04T02:00:08.457Z,98755.20
2018-03-04T02:02:35.918Z,98747.05
2018-03-04T02:05:03.310Z,98740.79
2018-03-04T02:07:30.736Z,98746.59
2018-03-04T02:09:58.150Z,98738.60
2018-03-04T02:12:25.550Z,98741.45
2018-03-04T02:14:53.622Z,98739.08
2018-03-04T02:17:21.038Z,98737.56
2018-03-04T02:19:48.439Z,98742.87
2018-03-04T02:22:15.935Z,98736.16
2018-03-04T02:24:43.312Z,98742.47
2018-03-04T02:27:10.950Z,98733.53
2018-03-04T02:29:38.362Z,98733.06
2018-03-04T02:32:06.019Z,98720.83
2018-03-04T02:34:33.532Z,98724.97
2018-03-04T02:37:01.000Z,98722.38
2018-03-04T02:39:28.401Z,98718.47
2018-03-04T02:41:55.822Z,98724.41
2018-03-04T02:44:23.726Z,98724.56
2018-03-04T02:46:51.117Z,98727.03
2018-03-04T02:49:18.528Z,98725.41
2018-03-04T02:51:46.018Z,98723.06
2018-03-04T02:54:13.494Z,98723.52
2018-03-04T02:56:40.968Z,98730.53
2018-03-04T02:59:08.417Z,98735.11
2018-03-04T03:01:35.797Z,98742.09
2018-03-04T03:04:03.181Z,98744.83
2018-03-04T03:06:30.572Z,98741.55
2018-03-04T03:08:58.012Z,98738.22
2018-03-04T03:11:25.416Z,98732.08
2018-03-04T03:13:52.796Z,98719.61
2018-03-04T03:16:20.287Z,98713.72
2018-03-04T03:18:47.698Z,98708.02
2018-03-04T03:21:15.092Z,98706.20
2018-03-04T03:23:42.527Z,98706.53
2018-03-04T03:26:09.929Z,98699.22
2018-03-04T03:28:37.389Z,98696.23
2018-03-04T03:31:04.811Z,98693.22
2018-03-04T03:33:32.193Z,98700.44
2018-03-04T03:35:59.624Z,98690.50
2018-03-04T03:38:27.037Z,98675.56
2018-03-04T03:40:54.450Z,98674.23
2018-03-04T03:43:21.856Z,98675.84
2018-03-04T03:45:49.233Z,98673.80
2018-03-04T03:48:16.628Z,98664.20
2018-03-04T03:50:44.021Z,98660.89
2018-03-04T03:53:11.492Z,98666.72
2018-03-04T03:55:38.871Z,98661.47
2018-03-04T03:58:06.253Z,98663.36
2018-03-04T04:00:33.684Z,98661.04
2018-03-04T04:03:01.107Z,98658.52
2018-03-04T04:05:28.498Z,98661.55
2018-03-04T04:07:55.918Z,98662.81
2018-03-04T04:10:24.246Z,98667.53
2018-03-04T04:12:51.641Z,98657.59
2018-03-04T04:15:19.102Z,98662.94
2018-03-04T04:17:46.501Z,98659.66
2018-03-04T04:20:13.883Z,98667.66
2018-03-04T04:22:41.270Z,98665.45
2018-03-04T04:25:08.720Z,98665.86
2018-03-04T04:27:36.120Z,98671.98
2018-03-04T04:30:03.603Z,98667.51
2018-03-04T04:32:30.985Z,98659.23
2018-03-04T04:34:58.395Z,98661.42
2018-03-04T04:37:25.843Z,98660.48
2018-03-04T04:39:54.416Z,98660.36
2018-03-04T04:42:21.795Z,98661.90
2018-03-04T04:44:49.196Z,98661.40
2018-03-04T04:47:16.595Z,98654.02
2018-03-04T04:49:43.979Z,98656.08
2018-03-04T04:52:11.427Z,98649.70
2018-03-04T04:54:38.843Z,98641.05
2018-03-04T04:57:06.418Z,98651.22
2018-03-04T04:59:33.977Z,98662.73
2018-03-04T05:02:01.377Z,98672.03
2018-03-04T05:04:28.788Z,98677.98
2018-03-04T05:06:56.216Z,98682.47
2018-03-04T05:09:24.663Z,98681.25
2018-03-04T05:11:52.253Z,98677.83
2018-03-04T05:14:19.656Z,98678.59
2018-03-04T05:16:47.064Z,98678.45
2018-03-04T05:19:14.630Z,98673.66
2018-03-04T05:21:42.217Z,98675.59
2018-03-04T05:24:09.590Z,98672.60
2018-03-04T05:26:36.993Z,98679.34
2018-03-04T05:29:04.389Z,98677.44
2018-03-04T05:31:31.954Z,98674.70
2018-03-04T05:33:59.369Z,98670.86
2018-03-04T05:36:26.756Z,98677.53
2018-03-04T05:38:54.561Z,98668.14
2018-03-04T05:41:21.956Z,98670.32
2018-03-04T05:43:49.567Z,98674.58
2018-03-04T05:46:17.005Z,98672.28
2018-03-04T05:48:44.414Z,98675.89
2018-03-04T05:51:11.793Z,98678.75
2018-03-04T05:53:39.281Z,98680.02
2018-03-04T05:56:06.835Z,98676.97
2018-03-04T05:58:34.250Z,98674.09
2018-03-04T06:01:01.773Z,98671.86
2018-03-04T06:03:29.164Z,98674.69
2018-03-04T06:05:56.592Z,98675.05
2018-03-04T06:08:24.849Z,98669.06
2018-03-04T06:10:52.270Z,98659.94
2018-03-04T06:13:19.665Z,98663.43
2018-03-04T06:15:47.928Z,98650.69
2018-03-04T06:18:15.338Z,98660.29
2018-03-04T06:20:42.822Z,98656.25
2018-03-04T06:23:10.221Z,98662.23
2018-03-04T06:25:37.631Z,98665.45
2018-03-04T06:28:05.036Z,98660.13
2018-03-04T06:30:32.425Z,98650.81
2018-03-04T06:32:59.830Z,98652.25
2018-03-04T06:35:27.235Z,98664.42
2018-03-04T06:37:55.060Z,98662.58
2018-03-04T06:40:22.458Z,98659.75
2018-03-04T06:42:49.916Z,98655.78
2018-03-04T06:45:17.373Z,98646.59
2018-03-04T06:47:44.779Z,98644.56
2018-03-04T06:50:12.251Z,98644.49
2018-03-04T06:52:39.982Z,98651.80
2018-03-04T06:55:07.449Z,98659.36
2018-03-04T06:57:34.951Z,98643.09
2018-03-04T07:00:02.335Z,98646.31
2018-03-04T07:02:29.752Z,98638.07
2018-03-04T07:04:57.135Z,98640.36
2018-03-04T07:07:24.863Z,98639.20
2018-03-04T07:09:52.248Z,98641.78
2018-03-04T07:12:19.646Z,98638.08
2018-03-04T07:14:47.062Z,98640.52
2018-03-04T07:17:14.450Z,98635.66
2018-03-04T07:19:42.579Z,98647.12
2018-03-04T07:22:09.969Z,98656.73
2018-03-04T07:24:37.370Z,98654.20
2018-03-04T07:27:04.765Z,98664.79
2018-03-04T07:29:32.211Z,98672.59
2018-03-04T07:31:59.620Z,98673.10
2018-03-04T07:34:27.176Z,98675.49
2018-03-04T07:36:55.155Z,98679.29
2018-03-04T07:39:22.606Z,98685.86
2018-03-04T07:41:49.999Z,98676.67
2018-03-04T07:44:17.371Z,98660.37
2018-03-04T07:46:45.769Z,98659.73
2018-03-04T07:49:13.153Z,98656.11
2018-03-04T07:51:40.562Z,98659.71
2018-03-04T07:54:07.935Z,98661.66
2018-03-04T07:56:35.431Z,98658.75
2018-03-04T07:59:02.819Z,98649.95
2018-03-04T08:01:30.228Z,98645.37
2018-03-04T08:03:58.038Z,98655.86
2018-03-04T08:06:25.432Z,98656.59
2018-03-04T08:08:52.954Z,98645.17
2018-03-04T08:11:20.388Z,98650.22
2018-03-04T08:13:48.180Z,98642.00
2018-03-04T08:16:15.562Z,98620.71
2018-03-04T08:18:42.960Z,98621.28
2018-03-04T08:21:10.394Z,98623.98
2018-03-04T08:23:37.806Z,98624.88
2018-03-04T08:26:16.821Z,98632.38
2018-03-04T08:28:44.271Z,98635.63
2018-03-04T08:31:11.647Z,98626.45
2018-03-04T08:33:39.092Z,98623.09
2018-03-04T08:36:06.629Z,98630.50
2018-03-04T08:38:34.429Z,98631.77
2018-03-04T08:41:01.903Z,98627.00
2018-03-04T08:43:29.389Z,98628.80
2018-03-04T08:45:56.830Z,98630.39
2018-03-04T08:48:24.250Z,98627.70
2018-03-04T08:50:51.653Z,98636.00
2018-03-04T08:53:19.058Z,98640.88
2018-03-04T08:55:46.437Z,98633.45
2018-03-04T08:58:14.051Z,98635.06
2018-03-04T09:00:41.450Z,98629.51
2018-03-04T09:03:08.828Z,98632.95
2018-03-04T09:05:36.262Z,98632.48
2018-03-04T09:08:03.707Z,98641.97
2018-03-04T09:10:31.117Z,98638.52
2018-03-04T09:12:58.492Z,98642.36
2018-03-04T09:15:25.937Z,98642.86
2018-03-04T09:17:54.310Z,98631.86
2018-03-04T09:20:21.715Z,98623.91
2018-03-04T09:22:49.128Z,98624.05
2018-03-04T09:25:16.709Z,98625.12
2018-03-04T09:27:44.152Z,98622.79
2018-03-04T09:30:11.572Z,98625.05
2018-03-04T09:32:38.986Z,98618.86
2018-03-04T09:35:06.673Z,98623.86
2018-03-04T09:37:34.055Z,98617.98
2018-03-04T09:40:01.585Z,98610.45
2018-03-04T09:42:28.963Z,98601.25
2018-03-04T09:44:56.409Z,98590.23
2018-03-04T09:47:23.809Z,98584.92
2018-03-04T09:49:51.285Z,98588.76
2018-03-04T09:52:18.736Z,98585.75
2018-03-04T09:54:46.263Z,98584.77
2018-03-04T09:57:13.658Z,98573.89
2018-03-04T09:59:41.062Z,98567.19
2018-03-04T10:02:08.489Z,98562.63
2018-03-04T10:04:35.885Z,98560.95
2018-03-04T10:07:03.310Z,98561.05
2018-03-04T10:09:30.699Z,98564.12
2018-03-04T10:11:58.092Z,98565.63
2018-03-04T10:14:25.789Z,98555.56
2018-03-04T10:16:53.181Z,98550.55
2018-03-04T10:19:20.864Z,98549.20
2018-03-04T10:21:48.278Z,98545.25
2018-03-04T10:24:15.674Z,98538.80
2018-03-04T10:26:43.123Z,98530.58
2018-03-04T10:29:10.515Z,98529.20
2018-03-04T10:31:37.933Z,98532.96
2018-03-04T10:34:06.043Z,98527.34
2018-03-04T10:36:33.428Z,98527.45
2018-03-04T10:39:01.204Z,98522.66
2018-03-04T10:41:28.610Z,98508.45
2018-03-04T10:43:56.120Z,98508.99
2018-03-04T10:46:23.657Z,98502.34
2018-03-04T10:48:51.051Z,98504.76
2018-03-04T10:51:18.449Z,98503.62
2018-03-04T10:53:45.837Z,98505.02
2018-03-04T10:56:13.349Z,98507.22
2018-03-04T10:58:40.779Z,98504.39
2018-03-04T11:01:10.034Z,98512.93
2018-03-04T11:03:37.442Z,98512.20
2018-03-04T11:06:05.006Z,98513.66
2018-03-04T11:08:32.970Z,98506.50
2018-03-04T11:11:00.390Z,98507.48
2018-03-04T11:13:27.776Z,98510.34
2018-03-04T11:15:56.048Z,98507.41
2018-03-04T11:18:23.553Z,98505.92
2018-03-04T11:20:50.981Z,98500.23
2018-03-04T11:23:18.677Z,98499.46
2018-03-04T11:25:46.101Z,98499.66
2018-03-04T11:28:13.637Z,98496.22
2018-03-04T11:30:41.014Z,98483.20
2018-03-04T11:33:08.444Z,98481.47
2018-03-04T11:35:36.244Z,98481.20
2018-03-04T11:38:03.666Z,98473.15
2018-03-04T11:40:31.073Z,98473.32
2018-03-04T11:42:58.485Z,98475.93
2018-03-04T11:45:26.208Z,98475.13
2018-03-04T11:47:53.693Z,98476.00
2018-03-04T11:50:21.105Z,98470.02
2018-03-04T11:52:48.542Z,98468.73
2018-03-04T11:55:15.964Z,98462.36
2018-03-04T11:57:44.393Z,98455.53
2018-03-04T12:00:11.934Z,98452.50
2018-03-04T12:02:41.002Z,98451.13
2018-03-04T12:05:08.561Z,98442.90
2018-03-04T12:07:36.149Z,98436.48
2018-03-04T12:10:03.762Z,98428.27
2018-03-04T12:12:31.169Z,98427.98
2018-03-04T12:14:58.619Z,98422.54
2018-03-04T12:17:27.211Z,98421.34
2018-03-04T12:19:54.639Z,98397.80
2018-03-04T12:22:22.030Z,98397.57
2018-03-04T12:24:49.659Z,98388.59
2018-03-04T12:27:17.252Z,98386.98
2018-03-04T12:29:44.876Z,98375.05
2018-03-04T12:32:12.330Z,98373.27
2018-03-04T12:34:39.739Z,98358.89
2018-03-04T12:37:07.129Z,98357.95
2018-03-04T12:39:34.619Z,98356.91
2018-03-04T12:42:02.011Z,98352.77
2018-03-04T12:44:29.510Z,98341.58
2018-03-04T12:46:57.005Z,98337.83
2018-03-04T12:49:25.080Z,98335.70
2018-03-04T12:51:52.480Z,98333.13
2018-03-04T12:54:19.903Z,98325.70
2018-03-04T12:56:47.283Z,98327.71
2018-03-04T12:59:14.686Z,98318.63
2018-03-04T13:01:42.085Z,98308.45
2018-03-04T13:04:09.487Z,98311.31
2018-03-04T13:06:37.182Z,98312.97
2018-03-04T13:09:08.879Z,98316.26
2018-03-04T13:11:36.287Z,98314.77
2018-03-04T13:14:03.740Z,98305.85
2018-03-04T13:16:31.140Z,98308.27
2018-03-04T13:18:58.679Z,98297.89
2018-03-04T13:21:26.552Z,98300.31
2018-03-04T13:23:53.960Z,98293.63
2018-03-04T13:26:21.346Z,98290.20
2018-03-04T13:28:48.897Z,98284.83
2018-03-04T13:31:16.264Z,98291.61
2018-03-04T13:33:43.707Z,98296.67
2018-03-04T13:36:11.133Z,98291.15
2018-03-04T13:38:38.612Z,98284.80
2018-03-04T13:41:07.109Z,98284.74
2018-03-04T13:43:34.614Z,98289.53
2018-03-04T13:46:02.014Z,98293.80
2018-03-04T13:48:29.433Z,98284.22
2018-03-04T13:50:56.832Z,98283.69
2018-03-04T13:53:24.232Z,98283.97
2018-03-04T13:55:51.633Z,98285.84
2018-03-04T13:58:19.037Z,98276.80
2018-03-04T14:00:46.534Z,98274.25
2018-03-04T14:03:13.990Z,98269.12
2018-03-04T14:05:41.425Z,98261.72
2018-03-04T14:08:12.056Z,98259.28
2018-03-04T14:10:39.583Z,98258.02
2018-03-04T14:13:07.014Z,98251.27
2018-03-04T14:15:34.661Z,98245.52
2018-03-04T14:18:02.163Z,98232.67
2018-03-04T14:20:29.586Z,98226.95
2018-03-04T14:22:57.342Z,98214.09
2018-03-04T14:25:25.052Z,98207.89
2018-03-04T14:27:52.500Z,98201.69
2018-03-04T14:30:19.930Z,98202.04
2018-03-04T14:32:47.904Z,98195.75
2018-03-04T14:35:15.338Z,98203.05
2018-03-04T14:37:42.741Z,98201.34
2018-03-04T14:40:17.037Z,98201.41
2018-03-04T14:42:51.843Z,98203.63
2018-03-04T14:45:19.504Z,98207.73
2018-03-04T14:47:46.969Z,98192.84
2018-03-04T14:50:14.360Z,98208.60
2018-03-04T14:52:48.129Z,98209.89
2018-03-04T14:55:15.546Z,98206.89
2018-03-04T14:57:42.919Z,98198.20
2018-03-04T15:00:10.324Z,98200.16
2018-03-04T15:02:37.773Z,98187.05
2018-03-04T15:05:05.216Z,98185.42
2018-03-04T15:07:32.602Z,98184.00
2018-03-04T15:10:00.117Z,98186.59
2018-03-04T15:12:28.297Z,98199.63
2018-03-04T15:14:55.738Z,98193.20
2018-03-04T15:17:23.143Z,98202.85
2018-03-04T15:19:50.549Z,98197.67
2018-03-04T15:22:17.965Z,98197.55
2018-03-04T15:24:45.421Z,98193.39
2018-03-04T15:27:12.881Z,98186.13
2018-03-04T15:29:40.522Z,98190.87
2018-03-04T15:32:07.980Z,98198.83
2018-03-04T15:34:35.614Z,98196.10
2018-03-04T15:37:04.509Z,98189.84
2018-03-04T15:39:31.952Z,98186.67
2018-03-04T15:41:59.332Z,98194.41
2018-03-04T15:44:28.597Z,98198.52
2018-03-04T15:46:56.103Z,98198.14
2018-03-04T15:49:23.538Z,98208.97
2018-03-04T15:51:50.983Z,98203.61
2018-03-04T15:54:18.381Z,98211.76
2018-03-04T15:56:45.816Z,98203.73
2018-03-04T15:59:13.197Z,98187.56
2018-03-04T16:01:40.588Z,98176.00
2018-03-04T16:04:07.993Z,98177.78
2018-03-04T16:06:35.604Z,98181.22
2018-03-04T16:09:03.005Z,98180.03
2018-03-04T16:11:30.400Z,98175.36
2018-03-04T16:13:57.812Z,98169.86
2018-03-04T16:16:26.047Z,98161.72
2018-03-04T16:18:53.656Z,98164.28
2018-03-04T16:21:32.914Z,98161.73
2018-03-04T16:24:09.549Z,98167.74
2018-03-04T16:26:38.762Z,98175.48
2018-03-04T16:29:08.267Z,98185.23
2018-03-04T16:31:35.964Z,98175.05
2018-03-04T16:34:03.357Z,98170.81
2018-03-04T16:36:30.765Z,98168.67
2018-03-04T16:38:58.156Z,98171.23
2018-03-04T16:41:25.679Z,98169.95
2018-03-04T16:43:53.342Z,98164.39
2018-03-04T16:46:20.837Z,98160.11
2018-03-04T16:48:48.255Z,98160.97
2018-03-04T16:51:15.653Z,98157.55
2018-03-04T16:53:43.229Z,98158.84
2018-03-04T16:56:10.777Z,98145.19
2018-03-04T16:58:38.162Z,98142.20
2018-03-04T17:01:05.597Z,98130.27
2018-03-04T17:03:32.997Z,98131.54
2018-03-04T17:06:00.400Z,98134.52
2018-03-04T17:08:28.008Z,98133.67
2018-03-04T17:10:56.324Z,98126.81
2018-03-04T17:13:23.714Z,98125.98
2018-03-04T17:15:51.191Z,98123.84
2018-03-04T17:18:18.689Z,98136.55
2018-03-04T17:20:46.098Z,98132.73
2018-03-04T17:23:19.134Z,98120.81
2018-03-04T17:25:46.913Z,98125.46
2018-03-04T17:28:15.933Z,98130.11
2018-03-04T17:30:50.426Z,98138.66
2018-03-04T17:33:19.145Z,98136.08
2018-03-04T17:35:46.643Z,98134.75
2018-03-04T17:38:14.252Z,98124.94
2018-03-04T17:40:41.749Z,98125.75
2018-03-04T17:43:09.144Z,98126.70
2018-03-04T17:45:36.593Z,98127.91
2018-03-04T17:48:04.179Z,98130.48
2018-03-04T17:50:31.596Z,98132.19
2018-03-04T17:52:59.259Z,98132.16
2018-03-04T17:55:27.748Z,98129.59
2018-03-04T17:57:55.159Z,98129.52
2018-03-04T18:00:22.712Z,98132.14
2018-03-04T18:02:50.147Z,98137.21
2018-03-04T18:05:17.572Z,98135.55
2018-03-04T18:07:44.983Z,98135.47
2018-03-04T18:10:12.388Z,98139.31
2018-03-04T18:12:40.794Z,98132.13
2018-03-04T18:15:08.195Z,98132.48
2018-03-04T18:17:35.593Z,98133.77
2018-03-04T18:20:03.365Z,98132.02
2018-03-04T18:22:30.743Z,98124.35
2018-03-04T18:24:58.209Z,98128.63
2018-03-04T18:27:26.040Z,98125.28
2018-03-04T18:29:53.936Z,98114.19
2018-03-04T18:32:21.332Z,98117.97
2018-03-04T18:34:48.873Z,98117.09
2018-03-04T18:37:16.304Z,98118.75
2018-03-04T18:39:43.685Z,98120.41
2018-03-04T18:42:11.159Z,98124.23
2018-03-04T18:44:39.872Z,98131.53
2018-03-04T18:47:07.278Z,98134.53
2018-03-04T18:49:34.687Z,98132.76
2018-03-04T18:52:02.098Z,98134.82
2018-03-04T18:54:29.623Z,98130.75
2018-03-04T18:56:58.011Z,98130.22
2018-03-04T18:59:25.404Z,98131.52
2018-03-04T19:01:52.837Z,98130.13
2018-03-04T19:04:20.285Z,98125.94
2018-03-04T19:06:47.679Z,98124.60
2018-03-04T19:09:15.263Z,98124.61
2018-03-04T19:11:42.653Z,98112.73
2018-03-04T19:14:10.056Z,98104.86
2018-03-04T19:16:37.448Z,98103.33
2018-03-04T19:19:04.848Z,98092.73
2018-03-04T19:21:39.470Z,98090.63
2018-03-04T19:24:06.914Z,98096.56
2018-03-04T19:26:35.332Z,98088.52
2018-03-04T19:29:14.431Z,98088.91
2018-03-04T19:31:41.889Z,98092.23
2018-03-04T19:34:09.359Z,98093.52
2018-03-04T19:36:36.815Z,98084.16
2018-03-04T19:39:04.282Z,98088.84
2018-03-04T19:41:31.715Z,98088.80
2018-03-04T19:43:59.103Z,98095.72
2018-03-04T19:46:26.590Z,98100.33
2018-03-04T19:48:54.370Z,98096.42
2018-03-04T19:51:21.758Z,98111.69
2018-03-04T19:53:49.193Z,98102.77
2018-03-04T19:56:16.572Z,98102.27
2018-03-04T19:58:44.030Z,98108.32
2018-03-04T20:01:11.572Z,98121.42
2018-03-04T20:03:38.997Z,98115.93
2018-03-04T20:06:06.483Z,98126.19
2018-03-04T20:08:33.938Z,98140.56
2018-03-04T20:11:01.437Z,98141.11
2018-03-04T20:13:28.909Z,98141.59
2018-03-04T20:15:56.968Z,98135.52
2018-03-04T20:18:24.383Z,98139.85
2018-03-04T20:20:51.884Z,98140.57
2018-03-04T20:23:19.287Z,98144.11
2018-03-04T20:25:46.756Z,98142.78
2018-03-04T20:28:14.179Z,98150.45
2018-03-04T20:30:44.470Z,98144.98
2018-03-04T20:33:12.014Z,98154.73
2018-03-04T20:35:39.519Z,98158.16
2018-03-04T20:38:06.908Z,98162.02
2018-03-04T20:40:34.296Z,98168.00
2018-03-04T20:43:02.120Z,98176.52
2018-03-04T20:45:29.504Z,98179.75
2018-03-04T20:47:56.913Z,98170.93
2018-03-04T20:50:24.450Z,98168.81
2018-03-04T20:52:51.857Z,98173.42
2018-03-04T20:55:19.312Z,98186.02
2018-03-04T20:57:47.000Z,98204.31
2018-03-04T21:00:14.461Z,98216.14
2018-03-04T21:02:41.876Z,98216.22
2018-03-04T21:05:09.283Z,98218.34
2018-03-04T21:07:36.707Z,98221.56
2018-03-04T21:10:04.152Z,98226.41
2018-03-04T21:12:31.709Z,98226.91
2018-03-04T21:14:59.172Z,98224.98
2018-03-04T21:17:26.623Z,98231.20
2018-03-04T21:19:54.065Z,98236.31
2018-03-04T21:22:21.469Z,98226.03
2018-03-04T21:24:48.891Z,98235.72
2018-03-04T21:27:16.289Z,98241.98
2018-03-04T21:29:43.808Z,98242.52
2018-03-04T21:32:13.330Z,98245.74
2018-03-04T21:34:40.744Z,98253.44
2018-03-04T21:37:08.293Z,98250.93
2018-03-04T21:39:35.858Z,98248.52
2018-03-04T21:42:03.236Z,98258.13
2018-03-04T21:44:30.636Z,98256.66
2018-03-04T21:46:58.776Z,98259.83
2018-03-04T21:49:26.170Z,98261.99
2018-03-04T21:51:53.636Z,98261.79
2018-03-04T21:54:21.015Z,98264.36
2018-03-04T21:56:49.336Z,98259.62
2018-03-04T21:59:16.720Z,98265.29
2018-03-04T22:01:44.157Z,98262.16
2018-03-04T22:04:11.543Z,98264.64
2018-03-04T22:06:39.522Z,98264.59
2018-03-04T22:09:06.963Z,98268.16
2018-03-04T22:11:34.385Z,98264.67
2018-03-04T22:14:01.904Z,98264.66
2018-03-04T22:16:29.294Z,98265.38
2018-03-04T22:18:56.898Z,98272.70
2018-03-04T22:21:24.276Z,98272.25
2018-03-04T22:23:51.668Z,98265.05
2018-03-04T22:26:19.070Z,98267.66
2018-03-04T22:28:46.474Z,98271.22
2018-03-04T22:31:13.933Z,98275.23
2018-03-04T22:33:41.345Z,98289.22
2018-03-04T22:36:08.730Z,98303.58
2018-03-04T22:38:36.120Z,98316.92
2018-03-04T22:41:03.726Z,98317.09
2018-03-04T22:43:31.173Z,98330.50
2018-03-04T22:46:00.384Z,98330.67
2018-03-04T22:48:27.902Z,98329.68
2018-03-04T22:50:56.538Z,98337.09
2018-03-04T22:53:23.980Z,98327.61
2018-03-04T22:55:51.383Z,98345.64
2018-03-04T22:58:18.772Z,98341.16
2018-03-04T23:00:46.193Z,98353.75
2018-03-04T23:03:13.607Z,98349.09
2018-03-04T23:05:41.090Z,98353.57
2018-03-04T23:08:08.498Z,98357.56
2018-03-04T23:10:35.906Z,98355.67
2018-03-04T23:13:03.838Z,98366.30
2018-03-04T23:15:32.049Z,98363.41
2018-03-04T23:17:59.522Z,98371.13
2018-03-04T23:20:29.495Z,98368.88
2018-03-04T23:22:57.152Z,98369.50
2018-03-04T23:25:24.730Z,98372.78
2018-03-04T23:27:53.353Z,98363.50
2018-03-04T23:30:21.196Z,98375.75
2018-03-04T23:32:48.680Z,98377.91
2018-03-04T23:35:18.215Z,98388.70
2018-03-04T23:37:45.586Z,98384.50
2018-03-04T23:40:12.980Z,98386.17
2018-03-04T23:42:40.387Z,98396.90
2018-03-04T23:45:07.965Z,98399.82
2018-03-04T23:47:35.336Z,98400.50
2018-03-04T23:50:02.740Z,98400.11
2018-03-04T23:52:30.145Z,98404.30
2018-03-04T23:54:57.534Z,98407.34
2018-03-04T23:57:24.957Z,98409.38
2018-03-04T23:59:52.430Z,98410.69
